Time;durP1;ratioP1;P1;durP2;ratioP2;P2;SDS_P1;SDS_P2;PMS_P1;PMS_P2;Temp;Humidity;BMP_temperature;BMP_pressure;BME280_temperature;BME280_humidity;BME280_pressure;Samples;Min_cycle;Max_cycle;Signal;HPM_P1;HPM_P2
2021/04/11 00:00:28;;;;;;;50.50;31.75;;;7.10;99.90;;;;;;5045811;28;20658;-88
2021/04/11 00:02:55;;;;;;;54.65;32.65;;;;;;;;;;5049046;28;20283;-87
2021/04/11 00:05:27;;;;;;;52.60;35.33;;;7.00;99.90;;;;;;5045831;28;20203;-88
2021/04/11 00:07:58;;;;;;;56.78;33.28;;;;;;;;;;5044228;28;20306;-87
2021/04/11 00:13:39;;;;;;;66.93;35.83;;;7.00;99.90;;;;;;5053892;28;20271;-88
2021/04/11 00:16:14;;;;;;;59.75;35.97;;;;;;;;;;5045061;28;20203;-87
2021/04/11 00:18:45;;;;;;;51.35;32.45;;;7.00;99.90;;;;;;5043924;28;20235;-87
2021/04/11 00:21:17;;;;;;;55.58;34.47;;;;;;;;;;5044329;28;20296;-87
2021/04/11 00:24:09;;;;;;;;;;;;;;;;;;;;;
2021/04/11 00:26:39;;;;;;;51.30;34.80;;;;;;;;;;5045226;28;20250;-88
2021/04/11 00:29:35;;;;;;;58.10;34.03;;;7.00;99.90;;;;;;5043178;28;20227;-87
2021/04/11 00:32:14;;;;;;;57.33;35.65;;;;;;;;;;5044583;28;20302;-88
2021/04/11 00:35:01;;;;;;;56.97;38.22;;;7.00;99.90;;;;;;5042750;28;20204;-88
2021/04/11 00:37:40;;;;;;;55.05;34.38;;;;;;;;;;5045132;28;20219;-88
2021/04/11 00:40:44;;;;;;;52.58;35.72;;;7.00;99.90;;;;;;5049554;28;20258;-87
2021/04/11 00:43:19;;;;;;;52.58;35.83;;;7.00;99.90;;;;;;5056818;28;20191;-87
2021/04/11 00:46:09;;;;;;;55.47;34.63;;;6.90;99.90;;;;;;5053951;28;20207;-88
2021/04/11 00:48:44;;;;;;;64.68;38.00;;;;;;;;;;5047332;28;20235;-87
2021/04/11 00:51:27;;;;;;;65.50;38.47;;;7.00;99.90;;;;;;5054135;28;20187;-88
2021/04/11 00:54:13;;;;;;;59.15;37.05;;;7.00;99.90;;;;;;5058035;28;20207;-88
2021/04/11 00:57:12;;;;;;;58.08;37.10;;;7.00;99.90;;;;;;5057111;28;20239;-89
2021/04/11 00:59:43;;;;;;;61.42;37.55;;;7.00;99.90;;;;;;5057820;28;20299;-87
2021/04/11 01:02:26;;;;;;;65.07;38.67;;;7.00;99.90;;;;;;5056994;28;20199;-88
2021/04/11 01:11:24;;;;;;;60.58;38.13;;;7.00;99.90;;;;;;5031351;28;20226;-88
2021/04/11 01:14:17;;;;;;;61.85;38.83;;;7.00;99.90;;;;;;5043023;28;20246;-87
2021/04/11 01:16:48;;;;;;;65.38;43.33;;;;;;;;;;5041444;28;20235;-86
2021/04/11 01:25:12;;;;;;;;;;;;;;;;;;;;;
2021/04/11 01:36:24;;;;;;;66.50;43.75;;;6.90;99.90;;;;;;5039185;28;20618;-87
2021/04/11 01:38:55;;;;;;;71.63;43.38;;;;;;;;;;5049348;28;20674;-88
2021/04/11 01:41:51;;;;;;;70.72;43.53;;;6.80;99.90;;;;;;5048807;28;20223;-88
2021/04/11 01:44:29;;;;;;;69.95;44.97;;;7.00;99.90;;;;;;5030523;28;20206;-88
2021/04/11 01:47:01;;;;;;;69.47;42.35;;;7.00;99.90;;;;;;5048217;28;20223;-88
2021/04/11 01:50:17;;;;;;;77.13;45.38;;;7.00;99.90;;;;;;5051450;28;20235;-87
2021/04/11 01:55:53;;;;;;;79.00;44.65;;;7.00;99.90;;;;;;4985306;28;20197;-87
2021/04/11 01:58:25;;;;;;;72.22;40.30;;;;;;;;;;5044803;28;20258;-88
2021/04/11 02:01:24;;;;;;;68.50;43.17;;;7.00;99.90;;;;;;5054662;28;20195;-88
2021/04/11 02:04:06;;;;;;;76.10;42.78;;;7.00;99.90;;;;;;5049906;28;20214;-89
2021/04/11 02:06:56;;;;;;;66.45;44.35;;;7.00;99.90;;;;;;5049096;28;20207;-87
2021/04/11 02:09:34;;;;;;;72.78;45.17;;;7.00;99.90;;;;;;5047017;28;20250;-88
2021/04/11 02:15:29;;;;;;;72.07;44.90;;;7.00;99.90;;;;;;5047031;28;20191;-88
2021/04/11 02:18:01;;;;;;;68.63;44.97;;;7.00;99.90;;;;;;5046066;28;20248;-87
2021/04/11 02:20:49;;;;;;;79.35;48.55;;;7.00;99.90;;;;;;5055658;28;20203;-87
2021/04/11 02:23:32;;;;;;;79.50;44.95;;;6.90;99.90;;;;;;5061385;28;20203;-87
2021/04/11 02:26:15;;;;;;;79.13;44.63;;;;;;;;;;5061264;28;20183;-88
2021/04/11 02:28:47;;;;;;;73.82;44.65;;;;;;;;;;5060995;28;20261;-89
2021/04/11 02:31:32;;;;;;;78.13;45.60;;;7.00;99.90;;;;;;5056977;28;20279;-88
2021/04/11 02:34:16;;;;;;;77.05;46.50;;;6.90;99.90;;;;;;5045080;28;20247;-87
2021/04/11 02:36:51;;;;;;;78.78;47.50;;;7.00;99.90;;;;;;5044833;28;20180;-87
2021/04/11 02:39:38;;;;;;;75.30;46.28;;;6.90;99.90;;;;;;5045213;28;20697;-87
2021/04/11 02:42:15;;;;;;;79.10;48.78;;;7.00;99.90;;;;;;5045560;28;20208;-87
2021/04/11 02:44:54;;;;;;;86.07;49.08;;;6.90;99.90;;;;;;5058541;28;20187;-87
2021/04/11 02:47:40;;;;;;;85.63;48.67;;;;;;;;;;5056335;28;20230;-88
2021/04/11 02:50:17;;;;;;;85.60;48.85;;;7.00;99.90;;;;;;5056859;28;20238;-87
2021/04/11 02:53:07;;;;;;;86.50;48.90;;;6.90;99.90;;;;;;5055963;28;20215;-87
2021/04/11 02:55:57;;;;;;;76.15;48.45;;;7.00;99.90;;;;;;5052428;28;20207;-88
2021/04/11 02:58:31;;;;;;;84.03;49.33;;;;;;;;;;5045124;28;20261;-87
2021/04/11 03:01:06;;;;;;;89.97;52.33;;;7.00;99.90;;;;;;5052618;28;20231;-87
2021/04/11 03:03:47;;;;;;;;;;;;;;;;;;;;;
2021/04/11 03:06:42;;;;;;;82.50;50.10;;;7.00;99.90;;;;;;5039878;28;20250;-88
2021/04/11 03:09:22;;;;;;;88.43;49.35;;;7.00;99.90;;;;;;5044302;28;20224;-88
2021/04/11 03:12:11;;;;;;;90.15;49.55;;;7.00;99.90;;;;;;5043800;28;20702;-88
2021/04/11 03:15:05;;;;;;;78.85;49.25;;;7.00;99.90;;;;;;5047212;28;20228;-88
2021/04/11 03:17:38;;;;;;;80.25;47.30;;;;;;;;;;5043541;28;20231;-88
2021/04/11 03:20:30;;;;;;;80.15;47.80;;;7.00;99.90;;;;;;5043537;28;20188;-88
2021/04/11 03:23:04;;;;;;;91.45;52.55;;;7.00;99.90;;;;;;5042903;28;20184;-88
2021/04/11 03:25:32;;;;;;;81.13;50.35;;;7.00;99.90;;;;;;5042177;28;20252;-88
2021/04/11 03:28:12;;;;;;;82.57;49.50;;;7.00;99.90;;;;;;5042192;28;20224;-88
2021/04/11 03:36:31;;;;;;;82.97;50.15;;;;;;;;;;5042898;28;20575;-87
2021/04/11 03:39:04;;;;;;;86.25;52.97;;;7.00;99.90;;;;;;5040908;28;20234;-87
2021/04/11 03:45:00;;;;;;;79.68;50.45;;;7.00;99.90;;;;;;5051638;28;20195;-87
2021/04/11 03:47:58;;;;;;;90.18;50.33;;;7.00;99.90;;;;;;5000011;28;20272;-88
2021/04/11 03:50:35;;;;;;;89.07;51.78;;;7.00;99.90;;;;;;5049306;28;20204;-88
2021/04/11 03:53:28;;;;;;;91.53;52.90;;;7.00;99.90;;;;;;5052422;28;20227;-87
2021/04/11 03:56:05;;;;;;;81.05;49.17;;;7.00;99.90;;;;;;5048682;28;20190;-88
2021/04/11 03:58:52;;;;;;;95.13;52.97;;;6.90;99.90;;;;;;5044468;28;20275;-87
2021/04/11 04:01:30;;;;;;;76.82;50.42;;;7.00;99.90;;;;;;5045583;28;20214;-87
2021/04/11 04:07:12;;;;;;;90.15;55.40;;;7.00;99.90;;;;;;5043123;28;20222;-87
2021/04/11 04:09:49;;;;;;;85.47;51.28;;;7.00;99.90;;;;;;5044000;28;20228;-87
2021/04/11 04:12:39;;;;;;;105.13;57.53;;;6.90;99.90;;;;;;5044256;28;20596;-87
2021/04/11 04:15:34;;;;;;;92.85;52.60;;;7.00;99.90;;;;;;5051396;28;20211;-88
2021/04/11 04:21:10;;;;;;;92.32;59.47;;;7.00;99.90;;;;;;5049694;28;20464;-88
2021/04/11 04:23:59;;;;;;;87.28;55.78;;;6.90;99.90;;;;;;5051469;28;20199;-89
2021/04/11 04:26:45;;;;;;;96.53;56.33;;;6.90;99.90;;;;;;5059353;28;20184;-89
2021/04/11 04:29:32;;;;;;;88.82;53.90;;;6.90;99.90;;;;;;5051469;28;20239;-88
2021/04/11 04:32:17;;;;;;;90.75;53.35;;;7.00;99.90;;;;;;5047907;28;20176;-87
2021/04/11 04:35:08;;;;;;;91.82;57.28;;;7.00;99.90;;;;;;5057241;28;20487;-88
2021/04/11 04:37:50;;;;;;;89.03;52.08;;;7.00;99.90;;;;;;5046900;28;20203;-88
2021/04/11 04:40:36;;;;;;;90.68;52.13;;;7.00;99.90;;;;;;5041822;28;20208;-88
2021/04/11 04:43:17;;;;;;;93.28;51.20;;;;;;;;;;5041780;28;20635;-88
2021/04/11 04:46:12;;;;;;;80.45;48.97;;;7.00;99.90;;;;;;5040027;28;20223;-88
2021/04/11 04:48:51;;;;;;;88.97;53.00;;;7.00;99.90;;;;;;5040688;28;20251;-88
2021/04/11 04:51:45;;;;;;;83.90;50.40;;;7.00;99.90;;;;;;5038745;28;20199;-88
2021/04/11 04:54:29;;;;;;;85.97;52.10;;;7.20;99.90;;;;;;5038533;28;20228;-88
2021/04/11 05:00:22;;;;;;;76.80;48.88;;;7.30;99.90;;;;;;5073605;22;20595;-87
2021/04/11 05:03:02;;;;;;;82.40;51.38;;;7.20;99.90;;;;;;5058860;28;20195;-87
2021/04/11 05:05:34;;;;;;;84.13;49.33;;;7.20;99.90;;;;;;5058597;28;20210;-87
2021/04/11 05:08:18;;;;;;;80.30;50.70;;;7.20;99.90;;;;;;5058849;28;20230;-87
2021/04/11 05:10:49;;;;;;;78.88;49.17;;;7.30;99.90;;;;;;5090081;22;20198;-80
2021/04/11 05:13:19;;;;;;;80.05;53.88;;;7.30;99.90;;;;;;5038227;28;20456;-82
2021/04/11 05:15:51;;;;;;;86.18;54.90;;;7.30;99.90;;;;;;5038438;28;20441;-81
2021/04/11 05:18:22;;;;;;;84.65;54.25;;;7.30;99.90;;;;;;5037871;28;20274;-81
2021/04/11 05:20:56;;;;;;;74.20;48.78;;;7.20;99.90;;;;;;5037520;28;20230;-81
2021/04/11 05:23:27;;;;;;;76.32;47.03;;;7.30;99.90;;;;;;5037122;28;20192;-81
2021/04/11 05:26:00;;;;;;;71.75;47.83;;;7.30;99.90;;;;;;5036950;28;20313;-80
2021/04/11 05:28:37;;;;;;;78.18;49.38;;;7.30;99.90;;;;;;5036738;28;20191;-81
2021/04/11 05:31:10;;;;;;;85.35;49.08;;;7.30;99.90;;;;;;5037596;28;20223;-81
2021/04/11 05:33:37;;;;;;;81.53;51.67;;;7.40;99.90;;;;;;5038578;28;20207;-81
2021/04/11 05:36:08;;;;;;;75.22;50.20;;;7.40;99.90;;;;;;5043254;28;20208;-79
2021/04/11 05:38:45;;;;;;;83.07;50.55;;;7.40;99.90;;;;;;5044894;28;20208;-81
2021/04/11 05:41:16;;;;;;;78.68;50.88;;;7.40;99.90;;;;;;5044431;28;20598;-81
2021/04/11 05:43:56;;;;;;;78.68;50.17;;;7.50;99.90;;;;;;5043801;28;20192;-82
2021/04/11 05:46:31;;;;;;;73.20;49.03;;;7.50;99.90;;;;;;5043190;28;20196;-81
2021/04/11 05:49:02;;;;;;;77.60;51.13;;;7.50;99.90;;;;;;5043546;28;20227;-81
2021/04/11 05:51:32;;;;;;;72.25;47.08;;;7.50;99.90;;;;;;5041285;28;20261;-80
2021/04/11 05:54:03;;;;;;;69.38;46.97;;;7.50;99.90;;;;;;5039883;28;20230;-82
2021/04/11 05:56:35;;;;;;;82.10;52.22;;;7.50;99.90;;;;;;5041765;28;20188;-82
2021/04/11 05:59:04;;;;;;;73.95;46.58;;;7.50;99.90;;;;;;5039303;28;20188;-82
2021/04/11 06:01:41;;;;;;;67.57;47.05;;;7.60;99.90;;;;;;5038485;28;20223;-82
2021/04/11 06:04:12;;;;;;;72.30;47.05;;;7.60;99.90;;;;;;5038772;28;20179;-81
2021/04/11 06:06:44;;;;;;;75.63;48.50;;;7.30;99.90;;;;;;5040412;28;20192;-81
2021/04/11 06:09:17;;;;;;;76.85;49.33;;;7.50;99.90;;;;;;5039845;28;20283;-82
2021/04/11 06:11:50;;;;;;;73.65;47.47;;;7.50;99.90;;;;;;5046010;28;20238;-81
2021/04/11 06:14:20;;;;;;;88.60;50.63;;;7.50;99.90;;;;;;5040905;28;20214;-80
2021/04/11 06:16:48;;;;;;;66.80;45.63;;;7.60;99.90;;;;;;5039988;28;20257;-82
2021/04/11 06:19:14;;;;;;;73.50;49.00;;;7.60;99.90;;;;;;5040987;28;20573;-80
2021/04/11 06:21:50;;;;;;;76.07;47.95;;;7.60;99.90;;;;;;5040029;28;20235;-79
2021/04/11 06:24:39;;;;;;;75.00;46.83;;;7.60;99.90;;;;;;5041135;28;20222;-81
2021/04/11 06:27:12;;;;;;;78.13;49.27;;;7.60;99.90;;;;;;5041052;28;20199;-82
2021/04/11 06:29:47;;;;;;;74.70;47.55;;;7.70;99.90;;;;;;5040141;28;20437;-81
2021/04/11 06:32:14;;;;;;;68.22;46.95;;;7.80;99.90;;;;;;5040758;28;20223;-81
2021/04/11 06:34:44;;;;;;;77.50;49.55;;;7.60;99.90;;;;;;5040666;28;20219;-81
2021/04/11 06:37:15;;;;;;;69.90;47.60;;;7.70;99.90;;;;;;5040787;28;20199;-81
2021/04/11 06:39:45;;;;;;;73.53;46.53;;;7.70;99.90;;;;;;5040447;28;20458;-80
2021/04/11 06:42:39;;;;;;;74.72;47.38;;;7.70;99.90;;;;;;5037726;28;20433;-80
2021/04/11 06:45:17;;;;;;;70.18;49.55;;;7.70;99.90;;;;;;5039545;28;20441;-81
2021/04/11 06:48:07;;;;;;;71.85;49.95;;;7.90;99.90;;;;;;5039678;28;20445;-81
2021/04/11 06:51:10;;;;;;;66.90;45.57;;;8.10;99.90;;;;;;5033502;28;20204;-81
2021/04/11 06:53:55;;;;;;;63.70;44.00;;;8.20;99.90;;;;;;5042347;28;20488;-82
2021/04/11 06:56:39;;;;;;;63.23;44.20;;;8.30;99.90;;;;;;5044773;28;20800;-82
2021/04/11 06:59:19;;;;;;;66.83;45.13;;;8.30;99.90;;;;;;5041334;28;20430;-82
2021/04/11 07:02:04;;;;;;;63.92;43.70;;;8.60;99.90;;;;;;5042048;28;20535;-81
2021/04/11 07:04:59;;;;;;;65.43;46.33;;;8.70;99.90;;;;;;5042313;28;20184;-81
2021/04/11 07:07:58;;;;;;;62.63;42.57;;;8.70;99.90;;;;;;5045996;28;20434;-82
2021/04/11 07:10:40;;;;;;;65.13;41.87;;;8.70;99.90;;;;;;5043563;28;20446;-79
2021/04/11 07:13:36;;;;;;;66.20;44.20;;;9.20;99.90;;;;;;5042622;28;20579;-82
2021/04/11 07:16:33;;;;;;;60.40;41.00;;;8.90;99.90;;;;;;5044879;28;20214;-80
2021/04/11 07:19:25;;;;;;;58.10;40.20;;;9.20;99.90;;;;;;5043906;28;20431;-80
2021/04/11 07:22:27;;;;;;;58.17;41.57;;;9.20;99.90;;;;;;5042212;28;20497;-82
2021/04/11 07:25:17;;;;;;;49.50;37.20;;;8.90;99.90;;;;;;5043037;28;20460;-82
2021/04/11 07:27:56;;;;;;;66.50;41.40;;;8.90;99.90;;;;;;5036689;28;20488;-83
2021/04/11 07:30:34;;;;;;;51.53;39.20;;;9.00;99.90;;;;;;5043489;28;20895;-82
2021/04/11 07:33:30;;;;;;;57.50;40.20;;;9.20;99.90;;;;;;5045290;28;20463;-81
2021/04/11 07:36:22;;;;;;;57.63;39.47;;;9.40;99.90;;;;;;5042440;28;20986;-81
2021/04/11 07:39:03;;;;;;;56.90;41.13;;;9.40;99.90;;;;;;5043059;28;20435;-79
2021/04/11 07:41:42;;;;;;;58.50;41.37;;;9.70;99.90;;;;;;5044720;28;20463;-82
2021/04/11 07:44:25;;;;;;;52.53;36.63;;;9.70;99.90;;;;;;5042310;28;20862;-81
2021/04/11 07:47:04;;;;;;;56.30;40.00;;;9.90;99.90;;;;;;5043399;28;20434;-80
2021/04/11 07:49:59;;;;;;;51.43;36.23;;;10.20;99.90;;;;;;5043446;28;20435;-81
2021/04/11 07:52:54;;;;;;;50.17;37.20;;;10.40;99.90;;;;;;5041899;28;20466;-81
2021/04/11 07:55:29;;;;;;;47.57;35.03;;;10.60;99.90;;;;;;5040789;28;20469;-80
2021/04/11 07:58:14;;;;;;;51.60;35.87;;;10.70;99.90;;;;;;5041000;28;20434;-82
2021/04/11 08:00:59;;;;;;;45.67;34.10;;;11.20;99.90;;;;;;5044634;28;20405;-81
2021/04/11 08:03:52;;;;;;;47.93;31.90;;;11.00;99.90;;;;;;5046962;28;20427;-80
2021/04/11 08:06:56;;;;;;;41.00;29.97;;;11.10;99.90;;;;;;5047082;28;20435;-82
2021/04/11 08:09:31;;;;;;;41.10;30.20;;;11.00;99.90;;;;;;5046897;28;20453;-80
2021/04/11 08:12:40;;;;;;;40.17;28.90;;;11.20;99.90;;;;;;5047362;28;20482;-82
2021/04/11 08:15:18;;;;;;;35.67;26.90;;;11.20;99.90;;;;;;5036229;28;20489;-81
2021/04/11 08:18:01;;;;;;;37.17;29.40;;;11.50;99.90;;;;;;5046753;28;20782;-81
2021/04/11 08:20:46;;;;;;;39.53;27.80;;;11.80;99.90;;;;;;5045089;28;20465;-81
2021/04/11 08:23:42;;;;;;;40.90;27.23;;;11.70;99.90;;;;;;5046063;28;20430;-81
2021/04/11 08:26:30;;;;;;;33.40;26.87;;;11.70;99.90;;;;;;5045361;28;20493;-81
2021/04/11 08:29:24;;;;;;;31.67;25.40;;;11.70;99.90;;;;;;5042900;28;20431;-81
2021/04/11 08:32:18;;;;;;;28.23;23.20;;;11.80;99.90;;;;;;5040741;28;20537;-81
2021/04/11 08:35:05;;;;;;;35.47;25.80;;;12.00;99.90;;;;;;5043613;28;20478;-82
2021/04/11 08:38:09;;;;;;;29.67;24.70;;;12.20;99.90;;;;;;5042370;28;20783;-81
2021/04/11 08:40:50;;;;;;;32.80;24.13;;;12.20;99.90;;;;;;5041169;28;20450;-80
2021/04/11 08:43:41;;;;;;;29.93;25.20;;;12.30;99.90;;;;;;5043037;28;20427;-82
2021/04/11 08:46:23;;;;;;;31.07;23.93;;;12.50;99.90;;;;;;5041726;28;20900;-81
2021/04/11 08:49:07;;;;;;;33.10;24.70;;;12.50;99.90;;;;;;5042903;28;20442;-80
2021/04/11 08:51:42;;;;;;;34.83;24.97;;;12.70;99.90;;;;;;5043660;28;20501;-81
2021/04/11 08:54:24;;;;;;;34.40;25.67;;;12.60;99.90;;;;;;5044793;28;20462;-80
2021/04/11 08:56:58;;;;;;;29.17;22.23;;;12.70;99.90;;;;;;5046431;28;20466;-81
2021/04/11 08:59:32;;;;;;;26.10;22.10;;;13.80;99.90;;;;;;5045340;28;20438;-80
2021/04/11 09:02:20;;;;;;;34.13;22.87;;;13.10;99.90;;;;;;5044868;28;20488;-81
2021/04/11 09:04:56;;;;;;;22.30;19.47;;;13.30;99.90;;;;;;5043672;28;20901;-79
2021/04/11 09:07:37;;;;;;;23.47;20.60;;;13.40;99.90;;;;;;5042000;28;20515;-81
2021/04/11 09:10:12;;;;;;;22.60;19.23;;;13.60;99.90;;;;;;5040807;28;20435;-80
2021/04/11 09:12:48;;;;;;;25.27;20.70;;;13.60;99.90;;;;;;5041585;28;20477;-81
2021/04/11 09:15:25;;;;;;;28.03;20.40;;;13.80;99.90;;;;;;5042198;28;20422;-81
2021/04/11 09:18:20;;;;;;;25.73;19.37;;;13.80;99.90;;;;;;5047218;28;20430;-83
2021/04/11 09:21:13;;;;;;;21.80;19.17;;;13.90;99.90;;;;;;5046289;28;20486;-81
2021/04/11 09:23:56;;;;;;;26.90;18.63;;;13.90;99.90;;;;;;5047482;28;20423;-81
2021/04/11 09:27:05;;;;;;;24.90;20.40;;;13.80;99.90;;;;;;5048888;28;20426;-82
2021/04/11 09:29:35;;;;;;;25.97;20.17;;;14.10;99.90;;;;;;5051129;28;20439;-81
2021/04/11 09:32:25;;;;;;;20.23;18.00;;;14.20;99.90;;;;;;5052329;28;20518;-81
2021/04/11 09:35:18;;;;;;;22.60;19.83;;;14.30;99.90;;;;;;5050689;28;20482;-81
2021/04/11 09:38:14;;;;;;;25.30;18.40;;;14.50;99.90;;;;;;5049980;28;20407;-82
2021/04/11 09:40:56;;;;;;;21.53;18.97;;;14.20;99.90;;;;;;5050072;28;20465;-82
2021/04/11 09:43:47;;;;;;;21.07;17.43;;;14.70;99.90;;;;;;5051179;28;20427;-82
2021/04/11 09:46:35;;;;;;;20.57;17.63;;;14.60;99.90;;;;;;5056281;28;20414;-82
2021/04/11 09:49:25;;;;;;;21.70;17.33;;;14.50;99.90;;;;;;5056529;28;20433;-82
2021/04/11 09:52:02;;;;;;;22.83;19.07;;;14.40;99.90;;;;;;5046261;28;20482;-82
2021/04/11 09:54:40;;;;;;;22.53;18.90;;;14.60;99.90;;;;;;5055317;28;20469;-81
2021/04/11 09:57:30;;;;;;;22.23;18.53;;;14.60;99.90;;;;;;5055745;28;20411;-82
2021/04/11 10:00:13;;;;;;;19.60;16.70;;;14.60;99.90;;;;;;5053921;28;20422;-80
2021/04/11 10:03:08;;;;;;;20.30;17.70;;;14.60;99.90;;;;;;5053918;28;20466;-80
2021/04/11 10:05:44;;;;;;;20.47;16.57;;;14.50;99.90;;;;;;5054685;28;20454;-80
2021/04/11 10:08:27;;;;;;;24.30;18.80;;;14.10;99.90;;;;;;5053812;28;20446;-82
2021/04/11 10:11:21;;;;;;;18.77;16.80;;;14.40;99.90;;;;;;5052309;28;20493;-81
2021/04/11 10:14:23;;;;;;;21.33;17.83;;;14.40;99.90;;;;;;5042906;28;20474;-80
2021/04/11 10:17:00;;;;;;;21.10;17.27;;;14.50;99.90;;;;;;5046781;28;20468;-81
2021/04/11 10:19:39;;;;;;;18.97;16.47;;;14.60;99.90;;;;;;5046043;28;20513;-81
2021/04/11 10:22:44;;;;;;;22.97;17.60;;;14.70;99.90;;;;;;5046210;28;20553;-81
2021/04/11 10:25:24;;;;;;;25.00;16.60;;;14.70;99.90;;;;;;5049070;28;20431;-81
2021/04/11 10:27:59;;;;;;;20.43;17.87;;;15.00;99.90;;;;;;5049127;28;20430;-82
2021/04/11 10:30:27;;;;;;;22.67;17.80;;;15.90;99.90;;;;;;5045281;28;20426;-83
2021/04/11 10:33:00;;;;;;;19.90;17.80;;;15.60;99.90;;;;;;5046772;28;20446;-82
2021/04/11 10:35:33;;;;;;;20.33;16.43;;;15.80;99.90;;;;;;5046639;28;20499;-81
2021/04/11 10:38:04;;;;;;;20.23;16.87;;;15.90;99.90;;;;;;5046649;28;20411;-83
2021/04/11 10:41:08;;;;;;;19.93;17.03;;;15.70;99.90;;;;;;5045372;28;20458;-81
2021/04/11 10:43:48;;;;;;;27.70;18.47;;;16.00;99.90;;;;;;5033919;28;20536;-81
2021/04/11 10:46:21;;;;;;;22.10;18.10;;;16.10;99.90;;;;;;5049335;28;20457;-82
2021/04/11 10:49:02;;;;;;;17.70;15.13;;;16.40;99.90;;;;;;5049069;28;20431;-82
2021/04/11 10:52:16;;;;;;;23.13;17.17;;;16.50;99.90;;;;;;5049606;28;20465;-81
2021/04/11 10:55:27;;;;;;;20.93;17.23;;;16.60;99.90;;;;;;5051972;28;20477;-81
2021/04/11 10:58:30;;;;;;;14.77;13.17;;;16.60;99.90;;;;;;5051266;28;20454;-81
2021/04/11 11:01:07;;;;;;;14.10;12.70;;;16.60;99.90;;;;;;5050291;28;20462;-80
2021/04/11 11:04:04;;;;;;;18.73;13.83;;;16.50;99.90;;;;;;5049633;28;20426;-82
2021/04/11 11:06:48;;;;;;;14.93;13.30;;;16.60;99.90;;;;;;5047877;28;20438;-82
2021/04/11 11:09:22;;;;;;;15.43;12.37;;;16.50;99.90;;;;;;5050689;28;20434;-82
2021/04/11 11:19:39;;;;;;;26.80;19.10;;;16.70;99.90;;;;;;5060347;28;20450;-88
2021/04/11 11:22:49;;;;;;;17.80;12.60;;;16.90;99.90;;;;;;4968529;28;20465;-87
2021/04/11 11:25:50;;;;;;;14.63;12.30;;;16.90;99.90;;;;;;4970503;28;20453;-86
2021/04/11 11:29:08;;;;;;;15.77;12.23;;;17.10;99.90;;;;;;5043284;28;20493;-87
2021/04/11 11:35:09;;;;;;;13.63;11.20;;;17.30;99.90;;;;;;5013769;28;20515;-87
2021/04/11 11:38:22;;;;;;;14.47;11.93;;;17.50;99.90;;;;;;5075976;28;20457;-87
2021/04/11 11:41:08;;;;;;;18.80;15.33;;;17.60;99.90;;;;;;5063331;28;20453;-88
2021/04/11 11:47:43;;;;;;;16.23;12.17;;;17.70;99.90;;;;;;5055399;28;20452;-88
2021/04/11 11:50:36;;;;;;;10.30;8.90;;;17.70;99.90;;;;;;5065122;28;20453;-87
2021/04/11 11:56:22;;;;;;;11.00;7.57;;;17.80;99.90;;;;;;4984443;28;20459;-88
2021/04/11 11:59:12;;;;;;;10.20;8.10;;;17.80;99.90;;;;;;5065822;28;20503;-87
2021/04/11 12:02:08;;;;;;;14.80;10.30;;;17.90;99.90;;;;;;5066919;28;20469;-88
2021/04/11 12:05:01;;;;;;;16.20;10.70;;;17.90;99.90;;;;;;5069303;28;20476;-87
2021/04/11 12:11:12;;;;;;;14.20;10.23;;;18.10;99.90;;;;;;5065357;28;20453;-87
2021/04/11 12:14:31;;;;;;;12.70;7.70;;;18.20;99.90;;;;;;5065435;28;20502;-88
2021/04/11 12:17:32;;;;;;;15.77;9.93;;;18.00;99.90;;;;;;5061694;28;20449;-88
2021/04/11 12:20:17;;;;;;;8.87;7.00;;;18.20;99.90;;;;;;5062294;28;20838;-88
2021/04/11 12:23:08;;;;;;;11.57;7.93;;;18.20;99.90;;;;;;5061543;28;20473;-88
2021/04/11 12:25:53;;;;;;;11.53;8.27;;;;;;;;;;5063013;28;20439;-88
2021/04/11 12:28:41;;;;;;;10.07;7.40;;;18.20;99.90;;;;;;5063355;28;20775;-88
2021/04/11 12:31:30;;;;;;;10.10;7.17;;;19.00;99.90;;;;;;5059798;28;20525;-88
2021/04/11 12:34:35;;;;;;;9.40;7.47;;;18.60;99.90;;;;;;5061938;28;20808;-88
2021/04/11 12:37:34;;;;;;;8.80;7.07;;;18.70;99.90;;;;;;5063399;28;20437;-88
2021/04/11 12:40:26;;;;;;;10.83;7.20;;;18.80;99.90;;;;;;5060802;28;20815;-88
2021/04/11 12:43:18;;;;;;;11.50;9.53;;;18.90;99.90;;;;;;5059670;28;20450;-87
2021/04/11 12:46:16;;;;;;;13.13;7.50;;;19.00;99.90;;;;;;5061770;28;21024;-87
2021/04/11 12:49:14;;;;;;;9.40;6.50;;;19.10;99.90;;;;;;5059748;28;20520;-88
2021/04/11 12:58:00;;;;;;;10.20;7.80;;;19.20;99.90;;;;;;5048039;28;20441;-88
2021/04/11 13:00:40;;;;;;;9.40;7.33;;;19.20;99.90;;;;;;5063816;28;20454;-87
2021/04/11 13:03:36;;;;;;;8.90;6.10;;;19.20;99.90;;;;;;5067504;28;20510;-88
2021/04/11 13:06:28;;;;;;;10.97;7.10;;;19.10;99.90;;;;;;5065135;28;20740;-87
2021/04/11 13:09:42;;;;;;;17.17;10.67;;;18.90;99.90;;;;;;5062839;28;20564;-88
2021/04/11 13:12:44;;;;;;;11.70;9.00;;;18.80;99.90;;;;;;5020560;28;20479;-88
2021/04/11 13:15:27;;;;;;;6.80;5.87;;;18.70;99.90;;;;;;5030230;28;20459;-88
2021/04/11 13:21:41;;;;;;;8.97;6.20;;;18.80;99.90;;;;;;5052539;28;21017;-88
2021/04/11 13:32:19;;;;;;;9.35;5.90;;;19.40;99.90;;;;;;4969409;28;20431;-87
2021/04/11 13:35:12;;;;;;;8.40;5.60;;;19.50;99.90;;;;;;4994208;28;20437;-87
2021/04/11 13:37:50;;;;;;;7.10;5.20;;;19.60;99.90;;;;;;5077621;28;20871;-87
2021/04/11 13:40:23;;;;;;;5.87;5.30;;;19.70;99.90;;;;;;5079858;28;20447;-87
2021/04/11 13:43:09;;;;;;;5.53;5.03;;;19.70;99.90;;;;;;5079905;28;20535;-87
2021/04/11 13:46:01;;;;;;;4.13;3.83;;;19.80;99.90;;;;;;5066279;28;20502;-88
2021/04/11 13:58:28;;;;;;;6.23;4.60;;;19.50;99.90;;;;;;5043654;28;20776;-88
2021/04/11 14:04:29;;;;;;;8.97;4.77;;;19.60;99.90;;;;;;5043334;28;20529;-87
2021/04/11 14:07:24;;;;;;;6.67;4.70;;;19.90;99.90;;;;;;5036967;28;20478;-87
2021/04/11 14:10:00;;;;;;;5.50;5.00;;;20.00;99.90;;;;;;5080115;28;20452;-87
2021/04/11 14:12:31;;;;;;;6.60;5.20;;;20.10;99.90;;;;;;5068532;28;20822;-88
2021/04/11 14:15:11;;;;;;;7.20;4.60;;;19.90;99.90;;;;;;5070366;28;20823;-88
2021/04/11 14:18:04;;;;;;;6.27;5.40;;;19.80;99.90;;;;;;5066513;28;20446;-87
2021/04/11 14:20:40;;;;;;;7.80;5.00;;;19.60;99.90;;;;;;5060503;28;20456;-88
2021/04/11 14:23:32;;;;;;;6.00;5.03;;;19.50;99.90;;;;;;5064799;28;20452;-87
2021/04/11 14:26:18;;;;;;;6.60;4.97;;;19.40;99.90;;;;;;5064569;28;20477;-87
2021/04/11 14:29:08;;;;;;;6.23;5.30;;;19.40;99.90;;;;;;5068286;28;20442;-87
2021/04/11 14:31:44;;;;;;;7.07;4.70;;;19.30;99.90;;;;;;5079694;28;20551;-87
2021/04/11 14:34:34;;;;;;;4.30;3.90;;;19.50;99.90;;;;;;5068193;28;20454;-87
2021/04/11 14:37:20;;;;;;;5.60;4.30;;;19.60;99.90;;;;;;5068739;28;20456;-88
2021/04/11 14:40:17;;;;;;;6.10;4.97;;;19.80;99.90;;;;;;5063457;28;20459;-88
2021/04/11 14:43:05;;;;;;;5.30;4.80;;;19.90;99.90;;;;;;5062838;28;20473;-88
2021/04/11 14:45:49;;;;;;;6.63;5.00;;;20.00;99.90;;;;;;5064880;28;20483;-87
2021/04/11 14:48:23;;;;;;;7.60;5.03;;;19.40;99.90;;;;;;5050143;28;20542;-87
2021/04/11 14:51:07;;;;;;;9.90;5.35;;;19.90;99.90;;;;;;5064348;28;20973;-87
2021/04/11 14:53:49;;;;;;;6.47;4.90;;;20.00;99.90;;;;;;5062895;28;20451;-88
2021/04/11 14:56:32;;;;;;;6.10;4.93;;;20.00;99.90;;;;;;5063916;28;20190;-88
2021/04/11 15:02:54;;;;;;;7.83;4.50;;;20.00;99.90;;;;;;5061740;28;20452;-89
2021/04/11 15:05:49;;;;;;;6.23;5.63;;;20.00;99.90;;;;;;5078656;28;20602;-89
2021/04/11 15:11:55;;;;;;;5.40;4.90;;;19.70;99.90;;;;;;5075353;28;20577;-88
2021/04/11 15:14:57;;;;;;;10.27;6.73;;;19.50;99.90;;;;;;5075096;28;20486;-88
2021/04/11 15:17:46;;;;;;;8.60;6.30;;;19.50;99.90;;;;;;5064493;28;20489;-87
2021/04/11 15:20:30;;;;;;;7.63;6.00;;;19.50;99.90;;;;;;5076945;28;20439;-88
2021/04/11 15:23:15;;;;;;;7.10;6.40;;;19.40;99.90;;;;;;5076553;28;20523;-88
2021/04/11 15:25:55;;;;;;;10.87;5.27;;;19.40;99.90;;;;;;5073384;28;20535;-88
2021/04/11 15:28:40;;;;;;;8.20;5.10;;;19.40;99.90;;;;;;5070998;28;20534;-87
2021/04/11 15:31:52;;;;;;;10.23;5.30;;;19.30;99.90;;;;;;5061703;28;20479;-88
2021/04/11 15:34:47;;;;;;;6.13;5.50;;;19.30;99.90;;;;;;5064181;28;20450;-88
2021/04/11 15:40:56;;;;;;;12.17;6.17;;;19.20;99.90;;;;;;5068330;28;20438;-88
2021/04/11 15:44:08;;;;;;;7.80;7.00;;;19.10;99.90;;;;;;5070122;28;20435;-87
2021/04/11 15:46:56;;;;;;;26.23;21.30;;;19.20;99.90;;;;;;5073843;28;20505;-88
2021/04/11 15:49:37;;;;;;;8.60;7.80;;;19.20;99.90;;;;;;5072148;28;20507;-88
2021/04/11 15:52:31;;;;;;;10.75;8.43;;;19.20;99.90;;;;;;5071431;28;20549;-88
2021/04/11 15:55:08;;;;;;;8.57;7.20;;;19.20;99.90;;;;;;5072344;28;20292;-87
2021/04/11 15:58:21;;;;;;;8.47;7.20;;;19.20;99.90;;;;;;5072489;28;20510;-88
2021/04/11 16:01:03;;;;;;;10.93;8.03;;;19.00;99.90;;;;;;5071924;28;20454;-87
2021/04/11 16:04:02;;;;;;;7.60;5.77;;;19.10;99.90;;;;;;5066473;28;20459;-88